Terminal Aerodrome Forecast
Issued by NWS Mt. Holly, NJ

Current Version | Previous Version | Text Only | Print | Product List | Glossary On
Versions: 1 2 3 4 5 6 7 8 9 10 11 12 13 14 15 16 17 18 19 20 21 22 23
819
FTUS41 KPHI 111720
TAFACY
TAF
KACY 111720Z 1118/1218 28012KT P6SM SKC
     FM112100 25005KT P6SM SKC
     FM120000 VRB02KT P6SM SKC
     FM120800 18009KT P6SM BKN140
     FM121500 19014G24KT P6SM OVC070
     FM121700 22015G25KT P6SM BKN060=

USA.gov is the U.S. government's official web portal to all federal, state and local government web resources and services.